Main page
METAR-TAF:

METAR-TAF

Airports :

Karpathos Island National Airport

Karpathos, Greece

latitude: 35-24-51N, longitude: 027-08-54E, elevation: 6 m

Current weather observation

The report was made 27 minutes ago, at 04:20 UTC
Wind 12 kt from the Northwest
Temperature 19°C
Humidity 83%
Pressure 1015 hPa

METAR: LGKP 260420Z AUTO 32012KT //// // ////// 19/16 Q1015 RE//

Time: 07:47 (04:47 UTC)

Forecast

The report was made 2 hours and 47 minutes ago, at 02:00 UTC
Forecast valid from 26 at 03 UTC to 26 at 12 UTC
Wind 115 kt from the Northwest with gusts up to 25 kt
Visibility 10 km or more
Few clouds at a height of 2000 ft

TAF: LGKP 260200Z 2603/2612 310115G25KT 9999 FEW020

Weather observations and forecasts of more than 4000 airports (METAR and TAF reports).

The available stations are represented by yellow and red dots on the map.

Hover mouse over dot to see the name of the station.

Then click to see weather observations and forecasts.

To change the map : click on the green buttons with a black cross to zoom in, on the green button with a dash to zoom out, or on the green arrows for adjacent maps.


METAR-TAF: